Time;durP1;ratioP1;P1;durP2;ratioP2;P2;SDS_P1;SDS_P2;PMS_P1;PMS_P2;Temp;Humidity;BMP_temperature;BMP_pressure;BME280_temperature;BME280_humidity;BME280_pressure;Samples;Min_cycle;Max_cycle;Signal;HPM_P1;HPM_P2
2023/03/04 00:01:16;;;;;;;33.33;18.07;;;3.80;1.00;;;;;;5042882;28;20951;-55
2023/03/04 00:03:42;;;;;;;38.43;16.87;;;3.70;1.00;;;;;;5045667;28;20279;-55
2023/03/04 00:06:08;;;;;;;37.00;17.83;;;3.60;1.00;;;;;;5040336;28;20302;-55
2023/03/04 00:08:34;;;;;;;35.73;19.37;;;3.60;1.00;;;;;;5041895;28;20187;-55
2023/03/04 00:10:59;;;;;;;35.43;17.73;;;3.70;1.00;;;;;;5042852;28;20805;-55
2023/03/04 00:13:25;;;;;;;36.30;18.20;;;3.80;1.00;;;;;;5039884;28;20497;-54
2023/03/04 00:15:51;;;;;;;33.03;17.97;;;3.90;1.00;;;;;;5041618;28;20192;-54
2023/03/04 00:18:17;;;;;;;28.87;17.00;;;3.90;1.00;;;;;;5054561;28;20455;-53
2023/03/04 00:20:42;;;;;;;33.50;17.40;;;3.90;1.00;;;;;;5052826;28;20677;-55
2023/03/04 00:23:08;;;;;;;31.90;18.10;;;3.90;1.00;;;;;;5048443;28;20215;-55
2023/03/04 00:25:33;;;;;;;30.07;16.00;;;3.90;1.00;;;;;;5055483;28;20191;-55
2023/03/04 00:27:59;;;;;;;32.07;17.40;;;3.90;1.00;;;;;;5058568;28;20188;-54
2023/03/04 00:30:25;;;;;;;32.30;16.90;;;3.80;1.00;;;;;;5059665;28;20183;-54
2023/03/04 00:32:51;;;;;;;30.90;15.27;;;3.70;1.00;;;;;;5054063;28;20951;-54
2023/03/04 00:35:16;;;;;;;30.73;14.90;;;3.80;1.00;;;;;;5050744;28;20184;-54
2023/03/04 00:37:42;;;;;;;28.13;16.50;;;3.90;1.00;;;;;;5048969;28;20204;-53
2023/03/04 00:40:09;;;;;;;27.40;16.20;;;3.80;1.00;;;;;;5058599;28;20583;-54
2023/03/04 00:42:34;;;;;;;28.00;16.03;;;3.80;1.00;;;;;;5047655;28;20208;-55
2023/03/04 00:45:00;;;;;;;26.80;16.30;;;3.90;1.00;;;;;;5054086;28;20514;-55
2023/03/04 00:47:26;;;;;;;27.10;15.90;;;3.90;1.00;;;;;;5052171;28;20245;-54
2023/03/04 00:49:51;;;;;;;26.30;16.27;;;3.90;1.00;;;;;;5047798;28;20252;-54
2023/03/04 00:52:17;;;;;;;31.30;17.17;;;3.80;1.00;;;;;;5051905;28;20187;-54
2023/03/04 00:54:42;;;;;;;29.37;15.93;;;3.90;1.00;;;;;;5053646;28;20255;-53
2023/03/04 00:57:08;;;;;;;30.33;16.30;;;3.80;1.00;;;;;;5049576;28;20223;-54
2023/03/04 00:59:34;;;;;;;25.60;16.43;;;3.90;1.00;;;;;;5048361;28;20288;-55
2023/03/04 01:01:59;;;;;;;27.40;16.60;;;3.90;1.00;;;;;;5054315;28;20254;-54
2023/03/04 01:04:25;;;;;;;31.00;16.97;;;3.90;1.00;;;;;;5055431;28;20272;-55
2023/03/04 01:06:50;;;;;;;28.33;16.53;;;4.00;1.00;;;;;;5051624;28;20193;-55
2023/03/04 01:09:16;;;;;;;25.00;15.67;;;3.90;1.00;;;;;;5045051;28;20205;-55
2023/03/04 01:11:42;;;;;;;29.30;16.57;;;3.90;1.00;;;;;;5043803;28;20200;-54
2023/03/04 01:14:07;;;;;;;28.50;16.93;;;3.90;1.00;;;;;;5049288;28;20264;-55
2023/03/04 01:16:33;;;;;;;25.07;14.27;;;3.90;1.00;;;;;;5047012;28;20206;-55
2023/03/04 01:18:59;;;;;;;30.07;16.63;;;4.00;1.00;;;;;;5044441;28;20196;-55
2023/03/04 01:21:25;;;;;;;26.03;15.20;;;4.00;1.00;;;;;;5047306;28;20198;-55
2023/03/04 01:23:50;;;;;;;28.90;16.50;;;4.10;1.00;;;;;;5044940;28;20650;-54
2023/03/04 01:26:16;;;;;;;26.57;16.43;;;4.10;1.00;;;;;;5068111;28;20184;-53
2023/03/04 01:28:42;;;;;;;22.33;14.67;;;3.90;1.00;;;;;;5053504;28;20192;-54
2023/03/04 01:31:07;;;;;;;25.23;16.10;;;3.80;1.00;;;;;;5054223;28;20196;-55
2023/03/04 01:33:33;;;;;;;23.57;15.70;;;3.80;1.00;;;;;;5065439;28;20227;-55
2023/03/04 01:35:58;;;;;;;22.53;15.70;;;3.70;1.00;;;;;;5063809;28;20642;-54
2023/03/04 01:38:24;;;;;;;25.83;16.13;;;3.60;1.00;;;;;;5048312;28;20188;-54
2023/03/04 01:40:50;;;;;;;25.57;15.83;;;3.70;1.00;;;;;;5055143;28;20559;-54
2023/03/04 01:43:23;;;;;;;26.43;15.40;;;3.80;1.00;;;;;;5052418;28;20211;-55
2023/03/04 01:45:50;;;;;;;30.23;20.03;;;3.80;1.00;;;;;;5050848;28;20438;-54
2023/03/04 01:48:19;;;;;;;23.40;15.37;;;3.80;1.00;;;;;;5042956;28;20454;-55
2023/03/04 01:50:44;;;;;;;21.20;15.83;;;3.80;1.00;;;;;;5042433;28;21000;-54
2023/03/04 01:53:18;;;;;;;22.30;15.40;;;3.80;1.00;;;;;;5041390;28;20478;-55
2023/03/04 01:55:44;;;;;;;19.17;13.80;;;3.80;1.00;;;;;;5041118;28;20251;-56
2023/03/04 01:58:11;;;;;;;23.90;15.07;;;3.80;1.00;;;;;;5042474;28;20447;-55
2023/03/04 02:00:37;;;;;;;22.33;14.40;;;3.80;1.00;;;;;;5043902;28;20196;-54
2023/03/04 02:03:13;;;;;;;25.60;15.60;;;3.90;1.00;;;;;;5040898;28;20521;-54
2023/03/04 02:05:43;;;;;;;21.17;14.70;;;3.80;1.00;;;;;;5042048;28;20462;-54
2023/03/04 02:08:10;;;;;;;26.80;14.40;;;3.80;1.00;;;;;;5042849;28;20534;-53
2023/03/04 02:10:37;;;;;;;21.70;14.20;;;3.80;1.00;;;;;;5040121;28;20478;-54
2023/03/04 02:13:03;;;;;;;22.70;14.83;;;3.80;1.00;;;;;;5043646;28;20546;-53
2023/03/04 02:15:29;;;;;;;20.20;13.70;;;3.80;1.00;;;;;;5043783;28;20936;-55
2023/03/04 02:17:55;;;;;;;20.37;14.37;;;3.70;1.00;;;;;;5054824;28;20192;-54
2023/03/04 02:20:21;;;;;;;23.30;14.00;;;3.70;1.00;;;;;;5050543;28;20439;-56
2023/03/04 02:22:57;;;;;;;21.23;13.70;;;3.80;1.00;;;;;;5055733;28;20620;-55
2023/03/04 02:25:32;;;;;;;20.80;13.87;;;3.70;1.00;;;;;;5052004;28;20223;-54
2023/03/04 02:27:58;;;;;;;21.57;14.90;;;3.80;1.00;;;;;;5065212;28;20444;-53
2023/03/04 02:30:26;;;;;;;20.60;15.33;;;3.80;1.00;;;;;;5052307;28;20489;-54
2023/03/04 02:32:52;;;;;;;20.70;13.60;;;3.90;1.00;;;;;;5059081;28;20556;-54
2023/03/04 02:35:19;;;;;;;20.80;14.00;;;3.90;1.00;;;;;;5056134;28;20454;-54
2023/03/04 02:37:45;;;;;;;20.33;14.97;;;4.00;1.00;;;;;;5050562;28;20459;-54
2023/03/04 02:40:32;;;;;;;22.80;15.90;;;3.90;1.00;;;;;;5057925;28;20942;-56
2023/03/04 02:42:59;;;;;;;16.73;13.17;;;3.90;1.00;;;;;;5051785;28;20214;-55
2023/03/04 02:45:46;;;;;;;17.83;13.80;;;3.80;1.00;;;;;;5053636;28;20743;-54
2023/03/04 02:48:13;;;;;;;20.93;14.30;;;3.80;1.00;;;;;;5050300;28;20464;-54
2023/03/04 02:50:45;;;;;;;21.47;15.37;;;3.80;1.00;;;;;;5052876;28;20442;-55
2023/03/04 02:53:11;;;;;;;17.50;14.30;;;3.80;1.00;;;;;;5063207;28;20866;-54
2023/03/04 02:55:37;;;;;;;16.30;13.03;;;3.90;1.00;;;;;;5050274;28;20455;-55
2023/03/04 02:58:03;;;;;;;22.37;15.13;;;3.90;1.00;;;;;;5055949;28;20364;-55
2023/03/04 03:00:28;;;;;;;19.40;14.03;;;3.80;1.00;;;;;;5051771;28;20200;-54
2023/03/04 03:02:55;;;;;;;22.87;15.80;;;3.80;1.00;;;;;;5047730;28;20470;-57
2023/03/04 03:05:26;;;;;;;19.87;14.83;;;3.80;1.00;;;;;;5052727;28;20642;-54
2023/03/04 03:07:52;;;;;;;20.70;15.50;;;3.70;1.00;;;;;;5051024;28;20435;-55
2023/03/04 03:10:18;;;;;;;17.10;12.03;;;3.60;1.00;;;;;;5054738;28;20457;-55
2023/03/04 03:12:43;;;;;;;21.90;14.87;;;3.60;1.00;;;;;;5050580;28;20526;-55
2023/03/04 03:15:09;;;;;;;23.00;14.57;;;3.60;1.00;;;;;;5051259;28;20454;-54
2023/03/04 03:17:35;;;;;;;19.23;14.37;;;3.70;1.00;;;;;;5058052;28;20279;-54
2023/03/04 03:20:01;;;;;;;21.97;15.80;;;3.90;1.00;;;;;;5051624;28;20501;-54
2023/03/04 03:22:27;;;;;;;19.63;13.70;;;3.70;1.00;;;;;;5055444;28;20207;-55
2023/03/04 03:24:52;;;;;;;18.13;13.03;;;3.70;1.00;;;;;;5056404;28;20457;-54
2023/03/04 03:27:18;;;;;;;23.13;14.20;;;3.60;1.00;;;;;;5054322;28;20183;-55
2023/03/04 03:29:43;;;;;;;18.37;14.83;;;3.60;1.00;;;;;;5059642;28;20193;-55
2023/03/04 03:32:09;;;;;;;20.00;15.07;;;3.60;1.00;;;;;;5061319;28;20187;-54
2023/03/04 03:34:35;;;;;;;21.60;14.23;;;3.60;1.00;;;;;;5052119;28;20187;-54
2023/03/04 03:37:00;;;;;;;22.30;14.73;;;3.70;1.00;;;;;;5047299;28;20692;-53
2023/03/04 03:39:26;;;;;;;25.30;14.77;;;3.70;1.00;;;;;;5056790;28;20198;-54
2023/03/04 03:41:51;;;;;;;21.93;14.43;;;3.80;1.00;;;;;;5049968;28;20191;-54
2023/03/04 03:44:17;;;;;;;23.40;15.00;;;3.70;1.00;;;;;;5054050;28;20180;-55
2023/03/04 03:46:43;;;;;;;20.70;11.10;;;3.70;1.00;;;;;;5066193;28;20203;-54
2023/03/04 03:49:08;;;;;;;22.37;13.30;;;3.60;1.00;;;;;;5050926;28;20271;-56
2023/03/04 03:51:34;;;;;;;22.07;14.80;;;3.70;1.00;;;;;;5044859;28;20537;-54
2023/03/04 03:53:59;;;;;;;22.27;14.50;;;3.70;1.00;;;;;;5044327;28;20231;-55
2023/03/04 03:56:25;;;;;;;23.23;13.70;;;3.90;1.00;;;;;;5043963;28;20187;-56
2023/03/04 03:58:50;;;;;;;22.80;15.00;;;3.90;1.00;;;;;;5036803;28;20596;-54
2023/03/04 04:01:16;;;;;;;22.33;14.17;;;3.80;1.00;;;;;;5041053;28;20203;-55
2023/03/04 04:03:42;;;;;;;18.90;13.20;;;3.80;1.00;;;;;;5041140;28;20483;-56
2023/03/04 04:06:07;;;;;;;21.83;14.17;;;3.90;1.00;;;;;;5042358;28;20593;-56
2023/03/04 04:08:33;;;;;;;20.73;14.27;;;3.90;1.00;;;;;;5042217;28;20241;-55
2023/03/04 04:10:58;;;;;;;21.43;12.93;;;3.80;1.00;;;;;;5041959;28;20260;-54
2023/03/04 04:13:24;;;;;;;20.37;13.83;;;3.70;1.00;;;;;;5040015;28;20267;-55
2023/03/04 04:15:53;;;;;;;19.93;14.20;;;3.80;1.00;;;;;;5039459;28;20196;-55
2023/03/04 04:18:19;;;;;;;24.40;13.90;;;3.90;1.00;;;;;;5041234;28;20653;-54
2023/03/04 04:20:46;;;;;;;19.30;13.47;;;3.90;1.00;;;;;;5040633;28;20442;-54
2023/03/04 04:23:11;;;;;;;19.10;12.63;;;3.90;1.00;;;;;;5057953;28;20202;-54
2023/03/04 04:25:37;;;;;;;20.63;13.17;;;3.90;1.00;;;;;;5059723;28;20457;-55
2023/03/04 04:28:03;;;;;;;21.13;12.83;;;3.80;1.00;;;;;;5040767;28;20282;-55
2023/03/04 04:30:28;;;;;;;18.27;11.60;;;3.80;1.00;;;;;;5041513;28;20188;-55
2023/03/04 04:32:54;;;;;;;18.07;13.70;;;3.80;1.00;;;;;;5063677;28;20195;-56
2023/03/04 04:35:20;;;;;;;19.63;12.33;;;3.90;1.00;;;;;;5047252;28;20197;-54
2023/03/04 04:37:45;;;;;;;20.87;13.67;;;3.90;1.00;;;;;;5052312;28;20183;-54
2023/03/04 04:40:12;;;;;;;23.83;12.63;;;3.80;1.00;;;;;;5056713;28;20191;-56
2023/03/04 04:42:37;;;;;;;23.53;13.30;;;3.70;1.00;;;;;;5049611;28;20203;-54
2023/03/04 04:45:03;;;;;;;17.67;11.63;;;3.80;1.00;;;;;;5059426;28;20444;-56
2023/03/04 04:47:29;;;;;;;19.33;13.20;;;3.90;1.00;;;;;;5052896;28;20266;-55
2023/03/04 04:49:55;;;;;;;18.67;11.87;;;3.90;1.00;;;;;;5051208;28;20541;-55
2023/03/04 04:52:20;;;;;;;18.87;13.47;;;3.90;1.00;;;;;;5043841;28;20250;-55
2023/03/04 04:54:46;;;;;;;23.40;13.37;;;4.00;1.00;;;;;;5046968;28;20235;-54
2023/03/04 04:57:11;;;;;;;18.30;12.87;;;4.00;1.00;;;;;;5058360;28;20271;-54
2023/03/04 04:59:37;;;;;;;20.10;13.37;;;4.10;1.00;;;;;;5049697;28;20275;-54
2023/03/04 05:02:02;;;;;;;18.27;12.43;;;4.00;1.00;;;;;;5054040;28;20545;-55
2023/03/04 05:04:28;;;;;;;22.43;13.53;;;3.90;1.00;;;;;;5057791;28;20202;-55
2023/03/04 05:06:54;;;;;;;20.10;11.97;;;3.90;1.00;;;;;;5050919;28;20249;-54
2023/03/04 05:09:21;;;;;;;20.07;13.20;;;3.80;1.00;;;;;;5055552;28;20192;-55
2023/03/04 05:11:47;;;;;;;21.57;12.50;;;3.70;1.00;;;;;;5050749;28;20204;-54
2023/03/04 05:14:13;;;;;;;17.23;12.40;;;3.80;1.00;;;;;;5052633;28;20446;-55
2023/03/04 05:16:39;;;;;;;23.73;13.47;;;3.90;1.00;;;;;;5058625;28;20655;-55
2023/03/04 05:19:05;;;;;;;16.10;11.43;;;4.10;1.00;;;;;;5052905;28;20280;-56
2023/03/04 05:21:30;;;;;;;23.13;14.90;;;4.10;1.00;;;;;;5053599;28;20199;-54
2023/03/04 05:23:56;;;;;;;20.67;13.23;;;4.10;1.00;;;;;;5052098;28;20806;-55
2023/03/04 05:26:22;;;;;;;21.50;12.10;;;4.00;1.00;;;;;;5046392;28;20195;-54
2023/03/04 05:28:47;;;;;;;18.37;11.70;;;4.00;1.00;;;;;;5055890;28;20550;-54
2023/03/04 05:31:13;;;;;;;19.57;12.80;;;3.90;1.00;;;;;;5057349;28;20192;-56
2023/03/04 05:33:39;;;;;;;20.60;11.63;;;3.90;1.00;;;;;;5058004;28;20730;-56
2023/03/04 05:36:06;;;;;;;22.93;12.90;;;4.00;1.00;;;;;;5054947;28;20638;-53
2023/03/04 05:38:32;;;;;;;23.60;12.90;;;3.90;1.00;;;;;;5050308;28;20446;-54
2023/03/04 05:41:00;;;;;;;20.73;12.13;;;4.00;1.00;;;;;;5053878;28;20477;-55
2023/03/04 05:43:27;;;;;;;21.83;12.30;;;4.10;1.00;;;;;;5046555;28;20828;-55
2023/03/04 05:45:53;;;;;;;21.20;12.93;;;4.20;1.00;;;;;;5048737;28;20442;-55
2023/03/04 05:48:18;;;;;;;18.50;12.07;;;4.20;1.00;;;;;;5041116;28;20473;-55
2023/03/04 05:50:44;;;;;;;16.80;11.00;;;4.20;1.00;;;;;;5043812;28;20453;-55
2023/03/04 05:53:10;;;;;;;20.23;12.97;;;4.20;1.00;;;;;;5044597;28;20236;-55
2023/03/04 05:55:35;;;;;;;16.40;11.50;;;4.30;1.00;;;;;;5040348;28;20184;-54
2023/03/04 05:58:01;;;;;;;20.97;12.07;;;4.20;1.00;;;;;;5041466;28;20193;-55
2023/03/04 06:00:27;;;;;;;19.53;12.43;;;4.30;1.00;;;;;;5041820;28;20207;-55
2023/03/04 06:02:52;;;;;;;20.50;12.57;;;4.30;1.00;;;;;;5039716;28;20590;-55
2023/03/04 06:05:19;;;;;;;25.40;12.47;;;4.20;1.00;;;;;;5042293;28;20456;-56
2023/03/04 06:07:44;;;;;;;18.50;11.60;;;4.20;1.00;;;;;;5042120;28;20654;-54
2023/03/04 06:10:13;;;;;;;20.67;12.30;;;4.20;1.00;;;;;;5054435;28;20441;-55
2023/03/04 06:12:39;;;;;;;21.73;13.13;;;4.10;1.00;;;;;;5052665;28;20191;-55
2023/03/04 06:15:05;;;;;;;18.50;11.57;;;4.20;1.00;;;;;;5049902;28;20442;-55
2023/03/04 06:17:32;;;;;;;15.97;11.20;;;4.20;1.00;;;;;;5062063;28;20976;-55
2023/03/04 06:19:57;;;;;;;23.33;11.60;;;4.30;1.00;;;;;;5054901;28;20814;-55
2023/03/04 06:22:23;;;;;;;23.07;12.47;;;4.40;1.00;;;;;;5052094;28;20469;-55
2023/03/04 06:24:48;;;;;;;19.17;11.73;;;4.40;1.00;;;;;;5044679;28;20204;-54
2023/03/04 06:27:15;;;;;;;16.97;12.10;;;4.40;1.00;;;;;;5039291;28;20188;-54
2023/03/04 06:29:41;;;;;;;21.10;12.80;;;4.50;1.00;;;;;;5054443;28;20192;-57
2023/03/04 06:32:06;;;;;;;18.57;10.27;;;4.50;1.00;;;;;;5046136;28;20820;-56
2023/03/04 06:34:32;;;;;;;21.13;12.20;;;4.50;1.00;;;;;;5046663;28;20238;-55
2023/03/04 06:36:58;;;;;;;21.27;11.93;;;4.50;1.00;;;;;;5056361;28;20203;-55
2023/03/04 06:39:24;;;;;;;20.53;11.00;;;4.50;1.00;;;;;;5047226;28;20646;-55
2023/03/04 06:41:49;;;;;;;22.80;12.50;;;4.50;1.00;;;;;;5046794;28;21215;-55
2023/03/04 06:44:15;;;;;;;19.47;10.53;;;4.50;1.00;;;;;;5049778;28;20211;-55
2023/03/04 06:46:41;;;;;;;22.47;12.27;;;4.50;1.00;;;;;;5049352;28;20184;-55
2023/03/04 06:49:06;;;;;;;17.40;12.50;;;4.50;1.00;;;;;;5046912;28;20289;-55
2023/03/04 06:51:32;;;;;;;19.60;13.23;;;4.50;1.00;;;;;;5046287;28;20203;-56
2023/03/04 06:53:57;;;;;;;16.80;10.80;;;4.50;1.00;;;;;;5005610;28;1090629;-55
2023/03/04 06:56:23;;;;;;;18.10;13.50;;;4.30;1.00;;;;;;5046867;28;20671;-56
2023/03/04 06:58:49;;;;;;;20.40;12.33;;;4.40;1.00;;;;;;5047131;28;20558;-54
2023/03/04 07:01:23;;;;;;;22.67;11.57;;;4.40;1.00;;;;;;5044230;28;20227;-56
2023/03/04 07:03:50;;;;;;;20.40;11.27;;;4.40;1.00;;;;;;5044621;28;20620;-54
2023/03/04 07:06:18;;;;;;;21.87;11.93;;;4.40;1.00;;;;;;5050121;28;20443;-56
2023/03/04 07:08:45;;;;;;;22.50;11.90;;;4.50;1.00;;;;;;5047315;28;20466;-53
2023/03/04 07:11:11;;;;;;;18.80;12.07;;;4.60;1.00;;;;;;5054676;28;20884;-55
2023/03/04 07:13:37;;;;;;;20.07;11.67;;;4.60;1.00;;;;;;5045936;28;20439;-56
2023/03/04 07:16:08;;;;;;;21.07;12.67;;;4.70;1.00;;;;;;5045255;28;20450;-55
2023/03/04 07:18:35;;;;;;;20.97;12.70;;;4.70;1.00;;;;;;5051450;28;20437;-58
2023/03/04 07:21:01;;;;;;;19.03;11.63;;;4.70;1.00;;;;;;5055070;28;20439;-56
2023/03/04 07:23:26;;;;;;;21.47;13.10;;;4.70;1.00;;;;;;5052315;28;20478;-56
2023/03/04 07:25:52;;;;;;;21.80;13.17;;;4.70;1.00;;;;;;5059333;28;20180;-54
2023/03/04 07:28:18;;;;;;;16.97;10.10;;;4.60;1.00;;;;;;5058606;28;20181;-55
2023/03/04 07:30:44;;;;;;;21.10;12.10;;;4.50;1.00;;;;;;5054844;28;20455;-55
2023/03/04 07:33:10;;;;;;;19.47;11.80;;;3.70;1.00;;;;;;5062527;28;20233;-54
2023/03/04 07:35:35;;;;;;;24.90;13.27;;;4.60;1.00;;;;;;5063221;28;20446;-54
2023/03/04 07:38:01;;;;;;;17.43;11.47;;;4.60;1.00;;;;;;5059099;28;20974;-55
2023/03/04 07:40:27;;;;;;;18.80;11.37;;;4.60;1.00;;;;;;5060142;28;20180;-56
2023/03/04 07:42:54;;;;;;;20.30;12.30;;;4.60;1.00;;;;;;5056109;28;20605;-56
2023/03/04 07:45:20;;;;;;;18.73;10.83;;;4.50;1.00;;;;;;5061082;28;20183;-54
2023/03/04 07:47:46;;;;;;;17.83;11.63;;;4.50;1.00;;;;;;5059689;28;20920;-55
2023/03/04 07:50:13;;;;;;;21.40;12.80;;;4.70;1.00;;;;;;5060961;28;20490;-55
2023/03/04 07:52:39;;;;;;;17.53;11.13;;;4.70;1.00;;;;;;5059319;28;20614;-55
2023/03/04 07:55:05;;;;;;;17.53;11.57;;;4.80;1.00;;;;;;5063349;28;20449;-56
2023/03/04 07:57:31;;;;;;;18.47;11.23;;;4.90;1.00;;;;;;5058927;28;20761;-54
2023/03/04 07:59:56;;;;;;;17.30;10.83;;;4.90;1.00;;;;;;5059368;28;20454;-56
2023/03/04 08:02:22;;;;;;;16.87;10.60;;;5.00;1.00;;;;;;5055448;28;20668;-56
2023/03/04 08:04:48;;;;;;;20.90;10.43;;;5.10;1.00;;;;;;5047330;28;20189;-56
2023/03/04 08:07:13;;;;;;;18.57;11.17;;;5.10;1.00;;;;;;5051887;28;20183;-56
2023/03/04 08:09:39;;;;;;;23.03;12.50;;;5.20;1.00;;;;;;5056010;28;20206;-56
2023/03/04 08:12:05;;;;;;;17.37;10.60;;;5.10;1.00;;;;;;5063426;28;20187;-55
2023/03/04 08:14:31;;;;;;;13.67;9.90;;;5.20;1.00;;;;;;5063269;28;20192;-56
2023/03/04 08:16:56;;;;;;;16.37;10.27;;;5.30;1.00;;;;;;5060851;28;20474;-54
2023/03/04 08:19:22;;;;;;;20.33;8.90;;;5.30;1.00;;;;;;5050512;28;20237;-57
2023/03/04 08:21:47;;;;;;;20.80;10.03;;;5.10;1.00;;;;;;5054788;28;20608;-55
2023/03/04 08:24:13;;;;;;;16.60;10.57;;;5.30;1.00;;;;;;5063608;28;20195;-55
2023/03/04 08:26:42;;;;;;;17.57;9.33;;;5.50;1.00;;;;;;5052102;28;20212;-56
2023/03/04 08:29:12;;;;;;;11.50;8.20;;;5.60;1.00;;;;;;5050807;28;20654;-56
2023/03/04 08:31:38;;;;;;;16.73;10.00;;;5.60;1.00;;;;;;5050270;28;20519;-57
2023/03/04 08:34:05;;;;;;;15.50;9.73;;;5.50;1.00;;;;;;5053894;28;20515;-56
2023/03/04 08:36:30;;;;;;;15.13;10.23;;;5.20;1.00;;;;;;5051913;28;20192;-58
2023/03/04 08:38:56;;;;;;;18.00;10.13;;;5.20;1.00;;;;;;5058927;28;20452;-55
2023/03/04 08:41:22;;;;;;;16.30;10.80;;;5.20;1.00;;;;;;5051626;28;20188;-56
2023/03/04 08:43:47;;;;;;;17.43;10.23;;;5.20;1.00;;;;;;5057470;28;20261;-54
2023/03/04 08:46:13;;;;;;;15.33;10.33;;;5.30;1.00;;;;;;5054239;28;20180;-56
2023/03/04 08:48:39;;;;;;;20.40;11.07;;;5.30;1.00;;;;;;5050231;28;21351;-56
2023/03/04 08:51:13;;;;;;;17.37;10.40;;;5.40;1.00;;;;;;5051489;28;20196;-55
2023/03/04 08:53:39;;;;;;;14.70;10.33;;;5.30;1.00;;;;;;5047916;28;20237;-55
2023/03/04 08:56:06;;;;;;;15.70;10.10;;;5.40;1.00;;;;;;5052540;28;20455;-56
2023/03/04 08:58:32;;;;;;;23.57;15.00;;;5.40;1.00;;;;;;5047814;28;20500;-56
2023/03/04 09:00:59;;;;;;;18.73;12.50;;;5.40;1.00;;;;;;5043972;28;20960;-58
2023/03/04 09:03:25;;;;;;;18.77;11.60;;;5.30;1.00;;;;;;5044162;28;20205;-56
2023/03/04 09:05:51;;;;;;;14.40;9.67;;;5.40;1.00;;;;;;5047781;28;20534;-56
2023/03/04 09:08:17;;;;;;;15.63;10.80;;;5.30;1.00;;;;;;5060776;28;20529;-56
2023/03/04 09:10:43;;;;;;;20.77;9.47;;;5.40;1.00;;;;;;5049854;28;20194;-56
2023/03/04 09:13:15;;;;;;;18.17;9.97;;;5.50;1.00;;;;;;5051331;28;20817;-56
2023/03/04 09:15:46;;;;;;;13.00;9.40;;;5.50;1.00;;;;;;5047676;28;20447;-55
2023/03/04 09:18:13;;;;;;;13.20;8.87;;;5.50;1.00;;;;;;5045106;28;20500;-55
2023/03/04 09:20:39;;;;;;;13.00;9.47;;;5.40;1.00;;;;;;5051335;28;22138;-55
2023/03/04 09:23:05;;;;;;;16.17;8.77;;;5.50;1.00;;;;;;5048871;28;20473;-56
2023/03/04 09:25:30;;;;;;;20.83;9.97;;;5.60;1.00;;;;;;5044557;28;20185;-55
2023/03/04 09:27:56;;;;;;;13.10;9.83;;;5.50;1.00;;;;;;5053102;28;20513;-56
2023/03/04 09:30:22;;;;;;;10.07;8.33;;;5.40;1.00;;;;;;5058863;28;20192;-55
2023/03/04 09:32:48;;;;;;;19.63;9.53;;;5.40;1.00;;;;;;5052032;28;20245;-56
2023/03/04 09:35:13;;;;;;;10.47;7.70;;;5.50;1.00;;;;;;5060222;28;20458;-56
2023/03/04 09:37:39;;;;;;;15.43;9.43;;;5.60;1.00;;;;;;5051326;28;20199;-58
2023/03/04 09:40:07;;;;;;;13.30;9.13;;;5.80;1.00;;;;;;5052079;28;20719;-57
2023/03/04 09:42:35;;;;;;;11.03;7.80;;;5.80;1.00;;;;;;5049998;28;20588;-56
2023/03/04 09:45:04;;;;;;;19.93;10.30;;;5.80;1.00;;;;;;5054618;28;20443;-57
2023/03/04 09:47:34;;;;;;;18.30;9.70;;;5.90;1.00;;;;;;5053034;28;20532;-57
2023/03/04 09:50:06;;;;;;;13.10;8.70;;;5.70;1.00;;;;;;5057655;28;21338;-57
2023/03/04 09:52:47;;;;;;;14.60;8.80;;;5.60;1.00;;;;;;5057382;28;20754;-56
2023/03/04 09:55:26;;;;;;;15.40;8.77;;;5.70;1.00;;;;;;5059073;28;20461;-57
2023/03/04 09:58:18;;;;;;;11.57;7.73;;;5.70;1.00;;;;;;5056921;28;20501;-57
2023/03/04 10:00:54;;;;;;;14.57;8.17;;;5.70;1.00;;;;;;5026906;28;20446;-55
2023/03/04 10:03:26;;;;;;;10.60;8.20;;;5.80;1.00;;;;;;5053977;28;20546;-57
2023/03/04 10:06:02;;;;;;;13.10;7.83;;;5.80;1.00;;;;;;5050909;28;20584;-57
2023/03/04 10:08:34;;;;;;;10.07;7.87;;;5.90;1.00;;;;;;5050225;28;20454;-56
2023/03/04 10:11:02;;;;;;;11.67;8.17;;;6.00;1.00;;;;;;5048134;28;20450;-57
2023/03/04 10:13:59;;;;;;;11.47;7.57;;;6.10;1.00;;;;;;5049009;28;20451;-58
2023/03/04 10:16:31;;;;;;;14.40;7.90;;;6.20;1.00;;;;;;5050537;28;20495;-56
2023/03/04 10:19:27;;;;;;;15.00;7.90;;;6.20;1.00;;;;;;5048770;28;20525;-57
2023/03/04 10:21:53;;;;;;;10.40;7.43;;;6.20;1.00;;;;;;5049534;28;20499;-57
2023/03/04 10:24:21;;;;;;;10.10;7.10;;;6.30;1.00;;;;;;5051407;28;20975;-58
2023/03/04 10:27:03;;;;;;;9.73;6.60;;;6.20;1.00;;;;;;5052459;28;20263;-57
2023/03/04 10:29:31;;;;;;;8.77;6.33;;;6.30;1.00;;;;;;5045024;28;20849;-57
2023/03/04 10:31:57;;;;;;;11.90;6.33;;;6.20;1.00;;;;;;5060070;28;20477;-57
2023/03/04 10:34:22;;;;;;;13.77;6.83;;;6.70;1.00;;;;;;5067943;28;20863;-57
2023/03/04 10:37:04;;;;;;;9.90;6.30;;;6.50;1.00;;;;;;5048758;28;20205;-57
2023/03/04 10:39:36;;;;;;;14.60;6.43;;;6.50;1.00;;;;;;5063152;28;20188;-56
2023/03/04 10:42:12;;;;;;;10.23;5.90;;;6.30;1.00;;;;;;5050968;28;20454;-57
2023/03/04 10:44:42;;;;;;;8.60;6.00;;;6.40;1.00;;;;;;5052944;28;20450;-55
2023/03/04 10:47:10;;;;;;;9.90;5.57;;;6.50;1.00;;;;;;5046917;28;20447;-56
2023/03/04 10:49:52;;;;;;;7.20;5.33;;;6.20;1.00;;;;;;5048717;28;20447;-55
2023/03/04 10:52:34;;;;;;;13.90;6.60;;;6.20;1.00;;;;;;5053279;28;20447;-56
2023/03/04 10:55:06;;;;;;;11.83;6.80;;;6.30;1.00;;;;;;5052489;28;20451;-56
2023/03/04 10:57:37;;;;;;;10.10;5.70;;;6.20;1.00;;;;;;5050807;28;20430;-55
2023/03/04 11:00:25;;;;;;;15.97;6.50;;;6.20;1.00;;;;;;5056373;28;20944;-56
2023/03/04 11:02:50;;;;;;;11.57;7.23;;;6.30;1.00;;;;;;5049646;28;20474;-58
2023/03/04 11:05:30;;;;;;;9.33;6.57;;;6.20;1.00;;;;;;5048196;28;20443;-58
2023/03/04 11:07:59;;;;;;;9.67;5.93;;;6.30;1.00;;;;;;5060142;28;20209;-58
2023/03/04 11:10:37;;;;;;;11.50;6.43;;;6.30;1.00;;;;;;5058009;28;20491;-57
2023/03/04 11:13:15;;;;;;;10.40;5.87;;;6.30;1.00;;;;;;5054542;28;20485;-59
2023/03/04 11:15:57;;;;;;;13.70;6.27;;;6.30;1.00;;;;;;5058250;28;20963;-57
2023/03/04 11:18:51;;;;;;;9.07;5.80;;;6.30;1.00;;;;;;5055997;28;20967;-58
2023/03/04 11:21:30;;;;;;;9.77;5.20;;;6.40;1.00;;;;;;5054823;28;20458;-57
2023/03/04 11:24:03;;;;;;;13.20;6.07;;;6.50;1.00;;;;;;5051020;28;20465;-60
2023/03/04 11:26:46;;;;;;;12.40;6.80;;;6.30;1.00;;;;;;5054824;28;20868;-58
2023/03/04 11:32:29;;;;;;;7.40;6.20;;;6.20;1.00;;;;;;5051287;28;20532;-55
2023/03/04 11:35:06;;;;;;;7.87;6.13;;;6.30;1.00;;;;;;5045195;28;20447;-55
2023/03/04 11:37:46;;;;;;;8.83;5.00;;;6.40;1.00;;;;;;5048822;28;20447;-54
2023/03/04 11:40:16;;;;;;;11.57;6.00;;;6.60;1.00;;;;;;5048314;28;20561;-54
2023/03/04 11:43:19;;;;;;;10.40;4.77;;;6.80;1.00;;;;;;5047332;28;21134;-54
2023/03/04 11:46:16;;;;;;;6.87;3.90;;;7.00;1.00;;;;;;5046844;28;20894;-54
2023/03/04 11:48:57;;;;;;;10.80;5.50;;;6.80;1.00;;;;;;5045012;28;20470;-52
2023/03/04 11:51:58;;;;;;;7.20;5.77;;;6.80;1.00;;;;;;5046090;28;20446;-57
2023/03/04 11:55:01;;;;;;;8.10;5.60;;;6.70;1.00;;;;;;5049711;28;20481;-54
2023/03/04 11:57:36;;;;;;;8.50;5.23;;;6.50;1.00;;;;;;5043337;28;20458;-56
2023/03/04 12:00:37;;;;;;;6.93;5.40;;;6.70;1.00;;;;;;5047446;28;20446;-55
2023/03/04 12:03:11;;;;;;;6.67;5.40;;;6.70;1.00;;;;;;5049358;28;20454;-58
2023/03/04 12:05:46;;;;;;;8.33;5.40;;;6.60;1.00;;;;;;5045532;28;20534;-55
2023/03/04 12:08:23;;;;;;;10.37;5.60;;;6.60;1.00;;;;;;5047000;28;20483;-54
2023/03/04 12:10:54;;;;;;;6.73;4.37;;;6.70;1.00;;;;;;5047700;28;20441;-53
2023/03/04 12:13:35;;;;;;;7.60;4.30;;;6.90;1.00;;;;;;5048215;28;20500;-54
2023/03/04 12:16:24;;;;;;;13.27;5.03;;;7.00;1.00;;;;;;5044468;28;20450;-55
2023/03/04 12:19:02;;;;;;;10.33;4.80;;;7.00;1.00;;;;;;5047826;28;20443;-56
2023/03/04 12:21:54;;;;;;;8.00;4.67;;;6.90;1.00;;;;;;5048423;28;20450;-56
2023/03/04 12:24:26;;;;;;;7.53;4.87;;;6.90;1.00;;;;;;5048766;28;20478;-56
2023/03/04 12:27:05;;;;;;;9.20;4.83;;;7.00;1.00;;;;;;5048935;28;20591;-55
2023/03/04 12:29:45;;;;;;;6.30;4.67;;;7.00;1.00;;;;;;5046972;28;20504;-52
2023/03/04 12:32:20;;;;;;;11.37;4.90;;;7.00;1.00;;;;;;5050866;28;20460;-53
2023/03/04 12:35:18;;;;;;;6.87;4.73;;;7.20;1.00;;;;;;5046482;28;20473;-54
2023/03/04 12:38:16;;;;;;;6.43;4.60;;;7.20;1.00;;;;;;5046042;28;20830;-55
2023/03/04 12:40:46;;;;;;;5.40;4.90;;;7.00;1.00;;;;;;5045099;28;20444;-54
2023/03/04 12:43:30;;;;;;;9.03;4.57;;;7.20;1.00;;;;;;5050685;28;20536;-55
2023/03/04 12:46:26;;;;;;;8.43;4.47;;;7.30;1.00;;;;;;5047770;28;20492;-56
2023/03/04 12:49:10;;;;;;;6.60;4.73;;;7.30;1.00;;;;;;5045114;28;20797;-56
2023/03/04 12:51:41;;;;;;;5.03;4.40;;;7.10;1.00;;;;;;5047484;28;20434;-54
2023/03/04 12:54:12;;;;;;;5.30;4.13;;;7.10;1.00;;;;;;5046879;28;20478;-54
2023/03/04 12:56:43;;;;;;;6.77;4.37;;;7.00;1.00;;;;;;5048954;28;20447;-55
2023/03/04 12:59:15;;;;;;;9.40;4.00;;;7.00;1.00;;;;;;5046411;28;20545;-56
2023/03/04 13:01:53;;;;;;;5.60;4.53;;;7.00;1.00;;;;;;5046316;28;20465;-55
2023/03/04 13:05:17;;;;;;;6.53;4.83;;;6.90;1.00;;;;;;5047076;28;20471;-55